Time;durP1;ratioP1;P1;durP2;ratioP2;P2;SDS_P1;SDS_P2;PMS_P1;PMS_P2;Temp;Humidity;BMP_temperature;BMP_pressure;BME280_temperature;BME280_humidity;BME280_pressure;Samples;Min_cycle;Max_cycle;Signal;HPM_P1;HPM_P2
2022/04/07 00:00:50;;;;;;;0.98;0.70;;;22.50;39.00;;;;;;4992470;28;20064;-64
2022/04/07 00:03:15;;;;;;;0.98;0.50;;;22.50;39.10;;;;;;5012086;28;20046;-61
2022/04/07 00:05:41;;;;;;;1.10;0.70;;;22.50;39.10;;;;;;4992930;28;20049;-63
2022/04/07 00:08:07;;;;;;;1.20;0.73;;;22.50;39.10;;;;;;4994113;28;20033;-62
2022/04/07 00:10:33;;;;;;;0.68;0.60;;;22.50;39.20;;;;;;4996876;28;20052;-61
2022/04/07 00:13:00;;;;;;;1.25;0.63;;;22.50;39.30;;;;;;4997024;28;20425;-64
2022/04/07 00:15:26;;;;;;;0.88;0.60;;;22.40;39.20;;;;;;4994553;28;20030;-64
2022/04/07 00:17:52;;;;;;;0.70;0.60;;;22.50;39.30;;;;;;4995028;28;20132;-65
2022/04/07 00:20:18;;;;;;;0.77;0.60;;;22.40;39.40;;;;;;4995092;28;20442;-61
2022/04/07 00:22:44;;;;;;;1.23;0.73;;;22.40;39.30;;;;;;4997224;28;20041;-62
2022/04/07 00:25:10;;;;;;;1.30;0.68;;;22.40;39.40;;;;;;4996564;28;20060;-61
2022/04/07 00:27:36;;;;;;;0.98;0.50;;;22.40;39.40;;;;;;4995743;28;20030;-65
2022/04/07 00:30:03;;;;;;;0.73;0.70;;;22.40;39.40;;;;;;4994785;28;20496;-66
2022/04/07 00:32:30;;;;;;;1.27;0.60;;;22.40;39.50;;;;;;4994870;28;20040;-63
2022/04/07 00:34:56;;;;;;;1.10;0.70;;;22.40;39.50;;;;;;4995499;28;20030;-61
2022/04/07 00:37:23;;;;;;;0.68;0.60;;;22.30;39.40;;;;;;4994188;28;20037;-65
2022/04/07 00:39:50;;;;;;;0.75;0.60;;;22.30;39.50;;;;;;4995046;28;20398;-61
2022/04/07 00:42:16;;;;;;;1.10;0.70;;;22.30;39.50;;;;;;4994771;28;20102;-63
2022/04/07 00:44:43;;;;;;;0.65;0.65;;;22.30;39.50;;;;;;4995669;28;20053;-66
2022/04/07 00:47:09;;;;;;;0.82;0.68;;;22.30;39.50;;;;;;4992528;28;20033;-63
2022/04/07 00:49:38;;;;;;;0.70;0.70;;;22.30;39.50;;;;;;4994260;28;20046;-62
2022/04/07 00:52:04;;;;;;;0.80;0.50;;;22.30;39.50;;;;;;4994949;28;20026;-62
2022/04/07 00:54:30;;;;;;;0.60;0.60;;;22.30;39.50;;;;;;4995464;28;20042;-62
2022/04/07 00:56:59;;;;;;;0.85;0.60;;;22.30;39.60;;;;;;4997593;28;20906;-60
2022/04/07 00:59:24;;;;;;;1.42;0.70;;;22.30;39.60;;;;;;4996550;28;20030;-61
2022/04/07 01:01:50;;;;;;;1.25;0.60;;;22.20;39.50;;;;;;4991199;28;20046;-62
2022/04/07 01:04:16;;;;;;;0.75;0.50;;;22.20;39.50;;;;;;4994720;28;20316;-64
2022/04/07 01:06:43;;;;;;;0.82;0.57;;;22.20;39.60;;;;;;4996945;28;20026;-60
2022/04/07 01:09:11;;;;;;;0.82;0.50;;;22.20;39.60;;;;;;4993334;28;20037;-61
2022/04/07 01:11:38;;;;;;;1.08;0.70;;;22.20;39.60;;;;;;4996555;28;20021;-62
2022/04/07 01:14:04;;;;;;;0.85;0.70;;;22.20;39.60;;;;;;4996225;28;20033;-62
2022/04/07 01:16:30;;;;;;;1.10;0.70;;;22.10;39.60;;;;;;4994934;28;20030;-62
2022/04/07 01:18:59;;;;;;;0.47;0.47;;;22.10;39.60;;;;;;4994723;28;20037;-64
2022/04/07 01:21:26;;;;;;;0.75;0.52;;;22.10;39.60;;;;;;4994748;28;20107;-64
2022/04/07 01:24:01;;;;;;;0.57;0.57;;;22.10;39.60;;;;;;4995390;28;20573;-65
2022/04/07 01:26:27;;;;;;;1.23;0.60;;;22.10;39.60;;;;;;4996170;28;20072;-60
2022/04/07 01:28:53;;;;;;;1.15;0.60;;;22.10;39.70;;;;;;4996659;28;20149;-64
2022/04/07 01:31:19;;;;;;;0.80;0.60;;;22.10;39.70;;;;;;4994014;28;20114;-61
2022/04/07 01:33:45;;;;;;;0.65;0.60;;;22.10;39.70;;;;;;4994248;28;20051;-61
2022/04/07 01:36:12;;;;;;;0.70;0.55;;;22.10;39.70;;;;;;4995627;28;20030;-63
2022/04/07 01:38:38;;;;;;;0.90;0.60;;;22.10;39.70;;;;;;4994257;28;20018;-62
2022/04/07 01:41:04;;;;;;;0.50;0.50;;;22.10;39.70;;;;;;4994327;28;20039;-60
2022/04/07 01:43:30;;;;;;;0.73;0.55;;;22.00;39.70;;;;;;5008593;28;20034;-62
2022/04/07 01:45:56;;;;;;;1.85;0.65;;;22.00;39.70;;;;;;4989925;28;20030;-63
2022/04/07 01:48:23;;;;;;;0.70;0.60;;;22.00;39.70;;;;;;4991661;28;20057;-62
2022/04/07 01:50:51;;;;;;;1.02;0.60;;;22.00;39.70;;;;;;4996591;28;20034;-62
2022/04/07 01:53:17;;;;;;;0.73;0.60;;;22.00;39.80;;;;;;4996168;28;20374;-62
2022/04/07 01:55:43;;;;;;;1.00;0.60;;;22.00;39.80;;;;;;4994231;28;20091;-62
2022/04/07 01:58:10;;;;;;;0.68;0.55;;;22.00;39.80;;;;;;4995622;28;20109;-62
2022/04/07 02:00:36;;;;;;;0.70;0.50;;;22.00;39.90;;;;;;4991536;28;20466;-62
2022/04/07 02:03:05;;;;;;;0.73;0.60;;;22.00;39.90;;;;;;4992616;28;20052;-62
2022/04/07 02:05:31;;;;;;;0.60;0.60;;;22.00;39.90;;;;;;4995503;28;20113;-64
2022/04/07 02:07:56;;;;;;;0.60;0.50;;;21.90;39.80;;;;;;4993751;28;20038;-60
2022/04/07 02:10:23;;;;;;;0.70;0.50;;;21.90;39.90;;;;;;4993100;28;20066;-60
2022/04/07 02:12:49;;;;;;;0.85;0.50;;;21.90;39.90;;;;;;4994548;28;20034;-60
2022/04/07 02:15:15;;;;;;;0.52;0.47;;;21.90;39.90;;;;;;4993390;28;20552;-62
2022/04/07 02:17:41;;;;;;;0.50;0.50;;;21.90;39.90;;;;;;4993013;28;20037;-64
2022/04/07 02:20:08;;;;;;;1.00;0.77;;;21.90;39.90;;;;;;4992298;28;20471;-61
2022/04/07 02:22:34;;;;;;;0.52;0.50;;;21.90;39.90;;;;;;4993158;28;20026;-60
2022/04/07 02:25:00;;;;;;;0.77;0.60;;;21.90;40.00;;;;;;4994519;28;20032;-61
2022/04/07 02:27:32;;;;;;;0.93;0.63;;;21.90;40.00;;;;;;4994097;28;20034;-62
2022/04/07 02:29:58;;;;;;;0.55;0.52;;;21.90;40.00;;;;;;4991732;28;20355;-62
2022/04/07 02:32:25;;;;;;;0.52;0.52;;;21.90;40.00;;;;;;4991899;28;20049;-62
2022/04/07 02:34:52;;;;;;;0.68;0.50;;;21.90;40.50;;;;;;4992935;28;20065;-61
2022/04/07 02:37:18;;;;;;;0.70;0.63;;;21.90;40.00;;;;;;4995441;28;20034;-62
2022/04/07 02:39:43;;;;;;;0.60;0.55;;;21.80;40.00;;;;;;4993643;28;20564;-64
2022/04/07 02:42:09;;;;;;;0.50;0.50;;;21.80;40.00;;;;;;4994128;28;20022;-65
2022/04/07 02:44:35;;;;;;;0.52;0.50;;;21.80;40.00;;;;;;4993098;28;20046;-60
2022/04/07 02:47:00;;;;;;;0.50;0.50;;;21.80;40.10;;;;;;4992551;28;20034;-62
2022/04/07 02:49:26;;;;;;;0.82;0.50;;;21.80;40.10;;;;;;4992766;28;20030;-61
2022/04/07 02:51:51;;;;;;;0.60;0.50;;;21.80;40.10;;;;;;4995575;28;20022;-62
2022/04/07 02:54:17;;;;;;;0.60;0.50;;;21.80;40.10;;;;;;4992948;28;20266;-60
2022/04/07 02:56:43;;;;;;;0.50;0.50;;;21.80;40.10;;;;;;4991707;28;20405;-61
2022/04/07 02:59:08;;;;;;;0.70;0.60;;;21.80;40.20;;;;;;4995339;28;20119;-64
2022/04/07 03:01:34;;;;;;;0.65;0.52;;;21.80;40.20;;;;;;4991131;28;20181;-60
2022/04/07 03:03:59;;;;;;;0.50;0.50;;;21.80;40.20;;;;;;4992604;28;20030;-62
2022/04/07 03:06:25;;;;;;;0.63;0.50;;;21.70;40.10;;;;;;4994626;28;20022;-61
2022/04/07 03:08:51;;;;;;;0.60;0.55;;;21.80;40.20;;;;;;4994708;28;20533;-60
2022/04/07 03:11:17;;;;;;;0.60;0.60;;;21.70;40.10;;;;;;4994493;28;20030;-63
2022/04/07 03:13:43;;;;;;;0.60;0.60;;;21.70;40.10;;;;;;4993114;28;20466;-62
2022/04/07 03:16:09;;;;;;;0.50;0.50;;;21.70;40.60;;;;;;4992149;28;20033;-63
2022/04/07 03:18:34;;;;;;;0.50;0.50;;;21.70;40.10;;;;;;4992323;28;20038;-60
2022/04/07 03:21:00;;;;;;;0.65;0.50;;;21.70;40.10;;;;;;4992211;28;20025;-62
2022/04/07 03:23:26;;;;;;;0.52;0.50;;;21.70;40.10;;;;;;4992547;28;20120;-62
2022/04/07 03:25:52;;;;;;;0.60;0.60;;;21.70;40.10;;;;;;4992041;28;23976;-61
2022/04/07 03:28:18;;;;;;;0.40;0.40;;;21.70;40.10;;;;;;4993172;28;20034;-64
2022/04/07 03:30:43;;;;;;;1.27;0.60;;;21.70;40.10;;;;;;4990302;28;20038;-60
2022/04/07 03:33:09;;;;;;;0.50;0.50;;;21.70;40.10;;;;;;4991857;28;20045;-62
2022/04/07 03:35:38;;;;;;;0.40;0.40;;;21.70;40.10;;;;;;4992619;28;20038;-60
2022/04/07 03:38:06;;;;;;;0.70;0.50;;;21.70;40.10;;;;;;4993799;28;20034;-60
2022/04/07 03:40:32;;;;;;;0.50;0.50;;;21.70;40.10;;;;;;4994348;28;21210;-62
2022/04/07 03:42:58;;;;;;;0.85;0.75;;;21.70;40.10;;;;;;4991023;28;20347;-61
2022/04/07 03:45:24;;;;;;;0.60;0.50;;;21.70;40.10;;;;;;4995608;28;20038;-61
2022/04/07 03:47:50;;;;;;;0.80;0.50;;;21.60;40.10;;;;;;4995430;28;20056;-61
2022/04/07 03:50:15;;;;;;;0.52;0.50;;;21.70;40.20;;;;;;4996905;28;20124;-64
2022/04/07 03:52:41;;;;;;;0.50;0.50;;;21.70;40.20;;;;;;4997312;28;20030;-63
2022/04/07 03:55:07;;;;;;;0.60;0.60;;;21.60;40.10;;;;;;4996897;28;20056;-64
2022/04/07 03:57:32;;;;;;;0.45;0.45;;;21.60;40.10;;;;;;4997957;28;20041;-61
2022/04/07 03:59:58;;;;;;;0.57;0.50;;;21.60;40.10;;;;;;4993781;28;20040;-60
2022/04/07 04:02:24;;;;;;;0.52;0.43;;;21.60;40.10;;;;;;4994715;28;20041;-61
2022/04/07 04:04:49;;;;;;;0.50;0.50;;;21.60;40.10;;;;;;4996755;28;20030;-62
2022/04/07 04:07:15;;;;;;;0.50;0.43;;;21.60;40.20;;;;;;4997780;28;20376;-61
2022/04/07 04:09:42;;;;;;;0.50;0.50;;;21.50;39.80;;;;;;4997470;28;20308;-60
2022/04/07 04:12:08;;;;;;;0.52;0.50;;;21.50;39.40;;;;;;4997254;28;20033;-60
2022/04/07 04:14:34;;;;;;;0.90;0.55;;;21.50;39.30;;;;;;4997024;28;20453;-61
2022/04/07 04:17:00;;;;;;;0.50;0.50;;;21.40;39.20;;;;;;4995100;28;20038;-60
2022/04/07 04:19:25;;;;;;;0.50;0.50;;;21.40;39.00;;;;;;4995038;28;20037;-60
2022/04/07 04:21:51;;;;;;;0.57;0.57;;;21.30;38.70;;;;;;4996083;28;20030;-61
2022/04/07 04:24:17;;;;;;;0.55;0.50;;;21.30;38.70;;;;;;4995166;28;20493;-61
2022/04/07 04:26:43;;;;;;;0.50;0.50;;;21.30;38.60;;;;;;4996087;28;20116;-61
2022/04/07 04:29:08;;;;;;;0.40;0.40;;;21.20;38.60;;;;;;4996359;28;20454;-62
2022/04/07 04:31:34;;;;;;;0.60;0.52;;;21.30;38.60;;;;;;4993652;28;20041;-62
2022/04/07 04:34:00;;;;;;;0.77;0.50;;;21.20;38.50;;;;;;4994584;28;20032;-60
2022/04/07 04:36:26;;;;;;;0.70;0.50;;;21.20;38.40;;;;;;4995501;28;20095;-60
2022/04/07 04:38:51;;;;;;;0.70;0.50;;;21.10;38.30;;;;;;4997366;28;20037;-59
2022/04/07 04:41:17;;;;;;;0.52;0.40;;;21.10;38.40;;;;;;4995668;28;20022;-64
2022/04/07 04:43:43;;;;;;;0.60;0.40;;;21.10;38.30;;;;;;4993501;28;20048;-60
2022/04/07 04:46:08;;;;;;;0.57;0.50;;;21.10;38.30;;;;;;4994381;28;20055;-61
2022/04/07 04:48:34;;;;;;;0.60;0.50;;;21.10;38.30;;;;;;4988840;28;20030;-61
2022/04/07 04:51:02;;;;;;;0.70;0.57;;;21.10;38.20;;;;;;4997206;28;20399;-64
2022/04/07 04:53:29;;;;;;;0.47;0.40;;;21.10;38.20;;;;;;4996177;28;20091;-60
2022/04/07 04:55:54;;;;;;;0.55;0.50;;;21.00;38.20;;;;;;4994167;28;20080;-61
2022/04/07 04:58:20;;;;;;;0.40;0.40;;;21.00;38.30;;;;;;4994987;28;20066;-61
2022/04/07 05:00:46;;;;;;;0.30;0.30;;;21.00;38.30;;;;;;4992510;28;20255;-60
2022/04/07 05:03:11;;;;;;;0.40;0.40;;;21.00;38.30;;;;;;4993256;28;20410;-61
2022/04/07 05:05:37;;;;;;;0.55;0.40;;;21.00;38.30;;;;;;4995191;28;20512;-64
2022/04/07 05:08:03;;;;;;;0.65;0.52;;;21.00;38.20;;;;;;4996477;28;20022;-64
2022/04/07 05:10:28;;;;;;;0.50;0.50;;;20.90;38.10;;;;;;4994284;28;20030;-62
2022/04/07 05:12:54;;;;;;;0.57;0.50;;;20.90;38.10;;;;;;4995679;28;20105;-61
2022/04/07 05:15:20;;;;;;;1.55;0.60;;;20.90;38.10;;;;;;4992356;28;20581;-60
2022/04/07 05:17:50;;;;;;;0.50;0.43;;;20.90;38.10;;;;;;4990329;28;20036;-60
2022/04/07 05:20:16;;;;;;;0.50;0.40;;;20.80;38.10;;;;;;4993536;28;20121;-62
2022/04/07 05:22:42;;;;;;;1.08;0.57;;;20.80;38.10;;;;;;4991940;28;20171;-60
2022/04/07 05:25:08;;;;;;;0.47;0.45;;;20.80;38.10;;;;;;4994045;28;20560;-59
2022/04/07 05:27:36;;;;;;;0.47;0.47;;;20.70;38.10;;;;;;4996582;28;20032;-60
2022/04/07 05:30:04;;;;;;;0.50;0.47;;;20.70;38.00;;;;;;4992707;28;20041;-61
2022/04/07 05:32:30;;;;;;;0.43;0.43;;;20.70;37.90;;;;;;4990872;28;20095;-60
2022/04/07 05:34:55;;;;;;;0.50;0.40;;;20.70;37.80;;;;;;4990029;28;20026;-60
2022/04/07 05:37:21;;;;;;;0.63;0.50;;;20.60;37.60;;;;;;4996851;28;20149;-59
2022/04/07 05:39:47;;;;;;;1.35;0.50;;;20.60;37.60;;;;;;4992841;28;20036;-63
2022/04/07 05:42:13;;;;;;;0.50;0.50;;;20.50;37.50;;;;;;4990932;28;20033;-61
2022/04/07 05:44:38;;;;;;;0.77;0.40;;;20.60;37.60;;;;;;4982485;28;20350;-62
2022/04/07 05:47:04;;;;;;;0.40;0.40;;;20.60;37.50;;;;;;4989222;28;20374;-61
2022/04/07 05:49:30;;;;;;;0.38;0.38;;;20.70;37.60;;;;;;4988857;28;20026;-59
2022/04/07 05:52:00;;;;;;;1.67;0.60;;;20.70;37.50;;;;;;4993638;28;20029;-60
2022/04/07 05:54:27;;;;;;;0.65;0.50;;;20.80;37.60;;;;;;4986804;28;20184;-60
2022/04/07 05:56:52;;;;;;;0.40;0.40;;;20.80;37.70;;;;;;4988935;28;20030;-59
2022/04/07 05:59:18;;;;;;;0.40;0.40;;;20.90;38.50;;;;;;4989328;28;20084;-60
2022/04/07 06:01:44;;;;;;;0.40;0.40;;;21.10;39.20;;;;;;4991398;28;20065;-63
2022/04/07 06:04:09;;;;;;;0.40;0.40;;;21.40;39.40;;;;;;4987142;28;20390;-60
2022/04/07 06:06:35;;;;;;;0.50;0.50;;;21.70;39.90;;;;;;4993819;28;20092;-61
2022/04/07 06:09:01;;;;;;;0.43;0.30;;;21.90;39.60;;;;;;4996353;28;20018;-60
2022/04/07 06:11:27;;;;;;;0.30;0.30;;;22.10;39.60;;;;;;4994963;28;20463;-61
2022/04/07 06:13:52;;;;;;;0.40;0.20;;;22.30;39.50;;;;;;4995191;28;20034;-60
2022/04/07 06:16:18;;;;;;;0.65;0.30;;;22.40;39.30;;;;;;4995230;28;20041;-60
2022/04/07 06:18:43;;;;;;;1.20;0.50;;;22.50;37.90;;;;;;4989879;28;20026;-61
2022/04/07 06:21:09;;;;;;;0.40;0.40;;;22.50;37.70;;;;;;4994707;28;20142;-60
2022/04/07 06:23:34;;;;;;;0.40;0.40;;;22.70;38.10;;;;;;4991886;28;20038;-59
2022/04/07 06:26:00;;;;;;;1.85;0.50;;;22.80;38.20;;;;;;4993375;28;20057;-63
2022/04/07 06:28:26;;;;;;;0.50;0.30;;;23.00;38.30;;;;;;4993972;28;20036;-62
2022/04/07 06:30:54;;;;;;;0.32;0.32;;;23.10;38.40;;;;;;4982248;28;20038;-60
2022/04/07 06:33:20;;;;;;;1.42;0.40;;;23.30;38.60;;;;;;4990542;28;20450;-60
2022/04/07 06:35:46;;;;;;;0.38;0.30;;;23.40;38.60;;;;;;4989879;28;20056;-62
2022/04/07 06:38:11;;;;;;;0.30;0.30;;;23.40;38.60;;;;;;4996631;28;20033;-61
2022/04/07 06:40:37;;;;;;;0.52;0.30;;;23.30;38.60;;;;;;4990081;28;20030;-63
2022/04/07 06:43:02;;;;;;;0.25;0.25;;;23.30;38.70;;;;;;4992855;28;20030;-62
2022/04/07 06:45:29;;;;;;;0.30;0.30;;;23.20;38.70;;;;;;4980962;28;20030;-62
2022/04/07 06:47:55;;;;;;;0.28;0.28;;;23.20;38.80;;;;;;4988204;28;20053;-64
2022/04/07 06:50:23;;;;;;;0.30;0.30;;;23.20;38.90;;;;;;4989502;28;20077;-60
2022/04/07 06:52:49;;;;;;;0.30;0.30;;;23.20;39.00;;;;;;4992892;28;20486;-63
2022/04/07 06:55:15;;;;;;;0.28;0.28;;;23.20;39.00;;;;;;4989914;28;20082;-62
2022/04/07 06:57:54;;;;;;;0.30;0.30;;;23.20;39.10;;;;;;4988896;28;20085;-62
2022/04/07 07:00:22;;;;;;;0.30;0.30;;;23.30;39.10;;;;;;4987429;28;20137;-60
2022/04/07 07:02:51;;;;;;;0.30;0.30;;;23.20;39.10;;;;;;4982845;28;20505;-64
2022/04/07 07:05:18;;;;;;;0.30;0.30;;;23.30;39.30;;;;;;4978238;28;20595;-61
2022/04/07 07:07:44;;;;;;;0.30;0.30;;;23.30;39.20;;;;;;4986445;28;20475;-62
2022/04/07 07:10:10;;;;;;;0.30;0.30;;;23.30;39.10;;;;;;4975895;28;20041;-64
2022/04/07 07:12:36;;;;;;;0.40;0.40;;;23.40;39.20;;;;;;4983585;28;20285;-61
2022/04/07 07:15:02;;;;;;;0.30;0.30;;;23.40;39.10;;;;;;4986775;28;20339;-60
2022/04/07 07:17:33;;;;;;;0.32;0.32;;;23.40;39.20;;;;;;4989079;28;20188;-61
2022/04/07 07:20:07;;;;;;;0.28;0.28;;;23.40;39.10;;;;;;4977519;28;24574;-61
2022/04/07 07:22:33;;;;;;;0.40;0.30;;;23.40;39.00;;;;;;4985681;28;20026;-61
2022/04/07 07:24:59;;;;;;;0.20;0.20;;;23.40;39.00;;;;;;4982159;28;20345;-60
2022/04/07 07:27:24;;;;;;;0.30;0.30;;;23.40;39.00;;;;;;4986736;28;20205;-62
2022/04/07 07:29:50;;;;;;;0.55;0.40;;;23.50;38.90;;;;;;4981463;28;20138;-63
2022/04/07 07:32:16;;;;;;;0.30;0.30;;;23.50;38.90;;;;;;4989458;28;20108;-60
2022/04/07 07:34:42;;;;;;;0.30;0.30;;;23.50;39.00;;;;;;4975948;28;20052;-63
2022/04/07 07:37:07;;;;;;;0.30;0.30;;;23.50;38.90;;;;;;4977332;28;20660;-61
2022/04/07 07:39:33;;;;;;;0.30;0.30;;;23.50;38.90;;;;;;5001471;28;20030;-62
2022/04/07 07:41:59;;;;;;;0.40;0.30;;;23.60;38.90;;;;;;4989618;28;20933;-60
2022/04/07 07:44:24;;;;;;;0.20;0.20;;;23.60;39.50;;;;;;4985773;28;20030;-61
2022/04/07 07:46:50;;;;;;;0.30;0.30;;;23.60;39.00;;;;;;4983911;28;20029;-60
2022/04/07 07:49:16;;;;;;;0.30;0.30;;;23.60;39.00;;;;;;4988889;28;20030;-64
2022/04/07 07:51:42;;;;;;;0.30;0.30;;;23.70;39.30;;;;;;4981019;28;20026;-61
2022/04/07 07:54:08;;;;;;;0.20;0.20;;;23.70;39.40;;;;;;4990059;28;20033;-61
2022/04/07 07:56:33;;;;;;;0.30;0.30;;;23.70;39.20;;;;;;4993247;28;20443;-61
2022/04/07 07:58:59;;;;;;;0.40;0.30;;;23.70;39.30;;;;;;4994650;28;20474;-63
2022/04/07 08:01:25;;;;;;;0.30;0.30;;;23.70;39.20;;;;;;4988417;28;20052;-60
2022/04/07 08:03:50;;;;;;;0.20;0.20;;;23.70;39.90;;;;;;4986032;28;20022;-60
2022/04/07 08:06:16;;;;;;;0.20;0.20;;;23.80;39.60;;;;;;5004389;28;20431;-61
2022/04/07 08:08:41;;;;;;;0.20;0.20;;;23.80;39.50;;;;;;4991808;28;20582;-61
2022/04/07 08:11:07;;;;;;;0.20;0.20;;;23.90;39.80;;;;;;4989285;28;20030;-62
2022/04/07 08:13:33;;;;;;;0.38;0.30;;;23.90;39.80;;;;;;4990523;28;20112;-63
2022/04/07 08:15:58;;;;;;;1.10;0.50;;;23.90;37.00;;;;;;4987028;28;20517;-62
2022/04/07 08:18:25;;;;;;;0.30;0.30;;;23.80;35.70;;;;;;4988194;28;20030;-62
2022/04/07 08:20:50;;;;;;;0.40;0.40;;;23.80;35.40;;;;;;4992374;28;20032;-59
2022/04/07 08:23:16;;;;;;;0.45;0.40;;;23.70;34.80;;;;;;4992240;28;20107;-64
2022/04/07 08:25:41;;;;;;;0.40;0.30;;;23.70;34.90;;;;;;4989870;28;20030;-61
2022/04/07 08:28:07;;;;;;;0.30;0.30;;;23.70;35.20;;;;;;4993254;28;20087;-60
2022/04/07 08:30:34;;;;;;;0.40;0.40;;;23.70;34.80;;;;;;4991779;28;20076;-61
2022/04/07 08:33:08;;;;;;;0.30;0.30;;;23.70;34.80;;;;;;5002484;28;20465;-61
2022/04/07 08:35:34;;;;;;;0.50;0.40;;;23.70;34.80;;;;;;4991954;28;20030;-64
2022/04/07 08:38:00;;;;;;;0.32;0.30;;;23.60;34.90;;;;;;4991586;28;20087;-60
2022/04/07 08:40:27;;;;;;;0.38;0.30;;;23.60;34.80;;;;;;4991424;28;20064;-64
2022/04/07 08:42:53;;;;;;;0.30;0.30;;;23.60;35.10;;;;;;4995431;28;20387;-63
2022/04/07 08:45:20;;;;;;;0.47;0.45;;;23.60;35.00;;;;;;4993914;28;20038;-62
2022/04/07 08:47:48;;;;;;;0.40;0.40;;;23.50;34.90;;;;;;4993622;28;20092;-63
2022/04/07 08:50:15;;;;;;;0.60;0.28;;;23.50;35.00;;;;;;4997556;28;20108;-62
2022/04/07 08:52:40;;;;;;;0.70;0.40;;;23.50;35.00;;;;;;4993271;28;20033;-63
2022/04/07 08:55:06;;;;;;;0.40;0.40;;;23.50;35.10;;;;;;4986619;28;20102;-63
2022/04/07 08:57:32;;;;;;;0.30;0.30;;;23.50;35.10;;;;;;4978551;28;20044;-61
2022/04/07 08:59:59;;;;;;;0.30;0.30;;;23.50;35.10;;;;;;4979977;28;20243;-61
2022/04/07 09:02:25;;;;;;;0.35;0.30;;;23.50;35.20;;;;;;4980144;28;20078;-64
2022/04/07 09:04:58;;;;;;;0.30;0.30;;;23.50;35.30;;;;;;4985568;28;20172;-61
2022/04/07 09:07:30;;;;;;;0.30;0.30;;;23.40;35.10;;;;;;4989071;28;20030;-60
2022/04/07 09:10:00;;;;;;;0.30;0.30;;;23.40;35.20;;;;;;4988516;28;20026;-61
2022/04/07 09:12:27;;;;;;;0.22;0.22;;;23.40;35.20;;;;;;4983200;28;20032;-60
2022/04/07 09:14:58;;;;;;;0.47;0.40;;;23.40;35.20;;;;;;4988315;28;20086;-61
2022/04/07 09:17:24;;;;;;;0.30;0.30;;;23.40;35.50;;;;;;4991058;28;20034;-61
2022/04/07 09:19:50;;;;;;;0.20;0.20;;;23.40;35.50;;;;;;4983187;28;20335;-61
2022/04/07 09:22:16;;;;;;;0.50;0.50;;;23.40;35.40;;;;;;4991377;28;20117;-61
2022/04/07 09:24:42;;;;;;;0.40;0.40;;;23.40;35.10;;;;;;4988648;28;20470;-60
2022/04/07 09:27:10;;;;;;;0.40;0.40;;;23.40;35.20;;;;;;4981780;28;20117;-62
2022/04/07 09:29:43;;;;;;;0.40;0.40;;;23.40;35.30;;;;;;4982860;28;20052;-62
2022/04/07 09:32:25;;;;;;;0.45;0.38;;;23.40;35.20;;;;;;4990783;28;20064;-63
2022/04/07 09:34:53;;;;;;;0.40;0.40;;;23.40;35.20;;;;;;4981537;28;20060;-60
2022/04/07 09:37:21;;;;;;;0.25;0.25;;;23.30;35.10;;;;;;4979309;28;20046;-62
2022/04/07 09:39:47;;;;;;;1.40;0.40;;;23.30;35.30;;;;;;4988655;28;20037;-61
2022/04/07 09:42:23;;;;;;;0.43;0.35;;;23.30;35.40;;;;;;4980987;28;20091;-61
2022/04/07 09:44:51;;;;;;;0.35;0.35;;;23.30;35.30;;;;;;4986412;28;20026;-63
2022/04/07 09:47:18;;;;;;;0.38;0.38;;;23.30;35.30;;;;;;4988739;28;20030;-60
2022/04/07 09:49:43;;;;;;;0.77;0.40;;;23.30;35.50;;;;;;4981944;28;20033;-61
2022/04/07 09:52:11;;;;;;;0.70;0.40;;;23.30;35.20;;;;;;4988292;28;20036;-60
2022/04/07 09:54:40;;;;;;;0.30;0.30;;;23.20;35.30;;;;;;4986142;28;20026;-61
2022/04/07 09:57:09;;;;;;;;;;;23.20;35.20;;;;;;4986861;28;20025;-60
2022/04/07 09:59:37;;;;;;;0.80;0.40;;;23.30;35.40;;;;;;4986361;28;20029;-62
2022/04/07 10:02:05;;;;;;;0.93;0.45;;;23.20;35.40;;;;;;4979726;28;20050;-61
2022/04/07 10:04:32;;;;;;;0.40;0.40;;;23.20;35.30;;;;;;4990568;28;20041;-60
2022/04/07 10:07:00;;;;;;;0.60;0.20;;;23.20;35.40;;;;;;4981789;28;20062;-61
2022/04/07 10:09:27;;;;;;;0.32;0.30;;;23.20;35.50;;;;;;4982612;28;20049;-61
2022/04/07 10:11:53;;;;;;;0.20;0.20;;;23.30;36.40;;;;;;4987214;28;20434;-61
2022/04/07 10:14:21;;;;;;;0.45;0.45;;;23.30;36.60;;;;;;4987710;28;20025;-60
2022/04/07 10:16:47;;;;;;;0.65;0.30;;;23.30;37.10;;;;;;4984272;28;20099;-61
2022/04/07 10:19:24;;;;;;;0.20;0.20;;;23.40;37.20;;;;;;4986397;28;20498;-61
2022/04/07 10:21:55;;;;;;;0.20;0.20;;;23.40;37.40;;;;;;4982840;28;20021;-62
2022/04/07 10:24:33;;;;;;;0.47;0.40;;;23.40;37.40;;;;;;4987813;28;20053;-59
2022/04/07 10:27:05;;;;;;;3.10;0.25;;;23.40;37.90;;;;;;4978236;28;20730;-60
2022/04/07 10:29:31;;;;;;;0.30;0.30;;;23.50;38.20;;;;;;4981860;28;20022;-60
2022/04/07 10:32:11;;;;;;;0.40;0.30;;;23.50;38.00;;;;;;4982331;28;20458;-62
2022/04/07 10:34:42;;;;;;;0.30;0.30;;;23.50;38.40;;;;;;4981195;28;20109;-61
2022/04/07 10:37:09;;;;;;;0.30;0.30;;;23.60;38.50;;;;;;4986343;28;20040;-60
2022/04/07 10:39:39;;;;;;;0.20;0.20;;;23.60;38.60;;;;;;4991107;28;20038;-60
2022/04/07 10:42:05;;;;;;;0.20;0.20;;;23.60;39.00;;;;;;4984265;28;20033;-61
2022/04/07 10:44:33;;;;;;;0.50;0.28;;;23.70;39.30;;;;;;4984590;28;20120;-63
2022/04/07 10:47:08;;;;;;;0.30;0.30;;;23.70;39.20;;;;;;4987805;28;20034;-61
2022/04/07 10:49:34;;;;;;;0.30;0.30;;;23.70;39.20;;;;;;4999369;28;20057;-62
2022/04/07 10:52:05;;;;;;;0.20;0.20;;;23.70;39.50;;;;;;5002545;28;21290;-63
2022/04/07 10:54:31;;;;;;;0.30;0.30;;;23.70;39.30;;;;;;4992151;28;20029;-59
2022/04/07 10:57:01;;;;;;;1.35;0.30;;;23.70;39.30;;;;;;4988671;28;20031;-61
2022/04/07 10:59:34;;;;;;;0.30;0.30;;;23.80;39.20;;;;;;4989641;28;20041;-59
2022/04/07 11:02:03;;;;;;;0.45;0.40;;;23.80;39.30;;;;;;4989640;28;20084;-60
2022/04/07 11:04:30;;;;;;;0.30;0.30;;;23.80;39.30;;;;;;4991478;28;20100;-60
2022/04/07 11:07:07;;;;;;;0.30;0.30;;;23.80;39.30;;;;;;4990897;28;20410;-61
2022/04/07 11:09:48;;;;;;;0.30;0.30;;;23.90;39.50;;;;;;4989689;28;20032;-60
2022/04/07 11:12:17;;;;;;;0.28;0.28;;;23.80;39.40;;;;;;4988551;28;20034;-61
2022/04/07 11:14:46;;;;;;;0.50;0.40;;;23.90;39.90;;;;;;4986942;28;20248;-61
2022/04/07 11:17:21;;;;;;;0.60;0.50;;;23.90;37.80;;;;;;4987227;28;20029;-60
2022/04/07 11:20:13;;;;;;;1.38;0.40;;;23.90;36.70;;;;;;4990637;28;20568;-62
2022/04/07 11:22:45;;;;;;;0.40;0.40;;;23.80;36.20;;;;;;4988750;28;20114;-60
2022/04/07 11:25:13;;;;;;;0.93;0.50;;;23.70;36.00;;;;;;4985631;28;20026;-62
2022/04/07 11:27:42;;;;;;;0.52;0.40;;;23.70;35.90;;;;;;4986173;28;20026;-61
2022/04/07 11:30:10;;;;;;;0.50;0.40;;;23.70;35.90;;;;;;4989625;28;20487;-60
2022/04/07 11:32:36;;;;;;;0.63;0.40;;;23.70;36.00;;;;;;4987857;28;20025;-63
2022/04/07 11:35:16;;;;;;;0.47;0.40;;;23.60;36.00;;;;;;4989569;28;20031;-59
2022/04/07 11:37:43;;;;;;;0.60;0.40;;;23.60;36.00;;;;;;4992005;28;20029;-60
2022/04/07 11:40:09;;;;;;;0.57;0.30;;;23.50;36.10;;;;;;4990297;28;20332;-60
2022/04/07 11:42:36;;;;;;;0.40;0.40;;;23.50;36.00;;;;;;4982332;28;20033;-59
2022/04/07 11:45:02;;;;;;;2.60;0.50;;;23.50;36.00;;;;;;4987595;28;20686;-59
2022/04/07 11:47:38;;;;;;;0.55;0.45;;;23.40;36.10;;;;;;4983365;28;20474;-60
2022/04/07 11:50:07;;;;;;;0.68;0.40;;;23.40;35.80;;;;;;4979672;28;20109;-60
2022/04/07 11:52:34;;;;;;;0.93;0.50;;;23.40;35.80;;;;;;4993191;28;20467;-61
2022/04/07 11:55:03;;;;;;;0.85;0.43;;;23.30;35.80;;;;;;4986514;28;20142;-58
2022/04/07 11:57:30;;;;;;;0.93;0.40;;;23.30;35.80;;;;;;4986212;28;20116;-61
2022/04/07 11:59:58;;;;;;;1.13;0.43;;;23.30;36.00;;;;;;4990294;28;21187;-60
2022/04/07 12:02:24;;;;;;;0.50;0.30;;;23.30;35.90;;;;;;4991874;28;20361;-62
2022/04/07 12:05:02;;;;;;;0.82;0.40;;;23.30;35.90;;;;;;4977299;28;20393;-61
2022/04/07 12:07:29;;;;;;;0.40;0.40;;;23.20;35.90;;;;;;4988323;28;20431;-59
2022/04/07 12:09:56;;;;;;;2.33;0.32;;;23.20;35.80;;;;;;4990679;28;20030;-62
2022/04/07 12:12:23;;;;;;;0.40;0.40;;;23.20;35.60;;;;;;4989409;28;20029;-62
2022/04/07 12:14:49;;;;;;;0.45;0.40;;;23.30;35.90;;;;;;4987092;28;20282;-60
2022/04/07 12:17:15;;;;;;;0.50;0.38;;;23.20;35.80;;;;;;4989891;28;20489;-61
2022/04/07 12:19:48;;;;;;;0.40;0.40;;;23.20;35.80;;;;;;4991698;28;20037;-60
2022/04/07 12:22:15;;;;;;;1.67;0.40;;;23.20;36.00;;;;;;4988197;28;20084;-61
2022/04/07 12:25:04;;;;;;;1.08;0.55;;;23.20;35.90;;;;;;4992869;28;20072;-62
2022/04/07 12:27:32;;;;;;;0.52;0.30;;;23.20;36.10;;;;;;4981832;28;20370;-60
2022/04/07 12:29:59;;;;;;;0.50;0.40;;;23.20;36.20;;;;;;4973828;28;20255;-59
2022/04/07 12:32:26;;;;;;;0.52;0.40;;;23.20;36.20;;;;;;4978018;28;20040;-60
2022/04/07 12:34:55;;;;;;;0.43;0.40;;;23.20;36.20;;;;;;4977913;28;20037;-59
2022/04/07 12:37:27;;;;;;;0.30;0.30;;;23.20;36.20;;;;;;4986605;28;20599;-60
2022/04/07 12:39:53;;;;;;;0.47;0.32;;;23.20;36.20;;;;;;4981882;28;20045;-61
2022/04/07 12:42:18;;;;;;;0.75;0.40;;;23.20;36.30;;;;;;4982893;28;20087;-60
2022/04/07 12:44:45;;;;;;;1.20;0.40;;;23.20;36.20;;;;;;4975796;28;20463;-61
2022/04/07 12:47:16;;;;;;;0.50;0.40;;;23.20;36.30;;;;;;4976157;28;20029;-59